sensor_id;sensor_type;location;lat;lon;timestamp;P1;durP1;ratioP1;P2;durP2;ratioP2
24301;SDS011;12421;49.732;20.078;2024-03-07T00:05:13;9.30;;;7.50;;
24301;SDS011;12421;49.732;20.078;2024-03-07T00:15:17;7.30;;;5.30;;
24301;SDS011;12421;49.732;20.078;2024-03-07T00:25:21;5.10;;;3.90;;
24301;SDS011;12421;49.732;20.078;2024-03-07T00:35:25;6.80;;;3.90;;
24301;SDS011;12421;49.732;20.078;2024-03-07T00:45:28;6.50;;;3.80;;
24301;SDS011;12421;49.732;20.078;2024-03-07T00:55:31;5.80;;;4.30;;
24301;SDS011;12421;49.732;20.078;2024-03-07T01:05:35;5.40;;;3.50;;
24301;SDS011;12421;49.732;20.078;2024-03-07T01:15:39;5.50;;;3.90;;
24301;SDS011;12421;49.732;20.078;2024-03-07T01:25:42;6.10;;;4.40;;
24301;SDS011;12421;49.732;20.078;2024-03-07T01:35:45;8.80;;;5.30;;
24301;SDS011;12421;49.732;20.078;2024-03-07T01:45:49;8.00;;;6.00;;
24301;SDS011;12421;49.732;20.078;2024-03-07T01:55:56;7.80;;;5.60;;
24301;SDS011;12421;49.732;20.078;2024-03-07T02:06:01;7.60;;;6.20;;
24301;SDS011;12421;49.732;20.078;2024-03-07T02:16:06;7.40;;;4.90;;
24301;SDS011;12421;49.732;20.078;2024-03-07T02:26:10;6.10;;;4.80;;
24301;SDS011;12421;49.732;20.078;2024-03-07T02:36:13;6.20;;;4.60;;
24301;SDS011;12421;49.732;20.078;2024-03-07T02:46:16;7.90;;;6.00;;
24301;SDS011;12421;49.732;20.078;2024-03-07T02:56:20;7.70;;;5.00;;
24301;SDS011;12421;49.732;20.078;2024-03-07T03:06:23;7.90;;;5.70;;
24301;SDS011;12421;49.732;20.078;2024-03-07T03:16:26;7.00;;;5.20;;
24301;SDS011;12421;49.732;20.078;2024-03-07T03:26:49;7.10;;;5.80;;
24301;SDS011;12421;49.732;20.078;2024-03-07T03:36:52;11.10;;;8.30;;
24301;SDS011;12421;49.732;20.078;2024-03-07T03:46:55;13.30;;;9.60;;
24301;SDS011;12421;49.732;20.078;2024-03-07T03:56:58;15.30;;;10.30;;
24301;SDS011;12421;49.732;20.078;2024-03-07T04:07:02;12.90;;;9.10;;
24301;SDS011;12421;49.732;20.078;2024-03-07T04:17:07;12.70;;;9.30;;
24301;SDS011;12421;49.732;20.078;2024-03-07T04:27:11;13.20;;;8.20;;
24301;SDS011;12421;49.732;20.078;2024-03-07T04:37:14;20.20;;;13.60;;
24301;SDS011;12421;49.732;20.078;2024-03-07T04:47:17;26.30;;;16.30;;
24301;SDS011;12421;49.732;20.078;2024-03-07T04:57:20;35.20;;;19.00;;
24301;SDS011;12421;49.732;20.078;2024-03-07T05:07:23;37.60;;;21.20;;
24301;SDS011;12421;49.732;20.078;2024-03-07T05:17:27;38.90;;;22.70;;
24301;SDS011;12421;49.732;20.078;2024-03-07T05:27:32;36.50;;;21.50;;
24301;SDS011;12421;49.732;20.078;2024-03-07T05:37:36;40.90;;;22.00;;
24301;SDS011;12421;49.732;20.078;2024-03-07T05:47:39;44.20;;;25.20;;
24301;SDS011;12421;49.732;20.078;2024-03-07T05:57:43;42.40;;;24.00;;
24301;SDS011;12421;49.732;20.078;2024-03-07T06:07:47;51.40;;;28.20;;
24301;SDS011;12421;49.732;20.078;2024-03-07T06:17:52;48.10;;;25.60;;
24301;SDS011;12421;49.732;20.078;2024-03-07T06:27:55;46.50;;;26.50;;
24301;SDS011;12421;49.732;20.078;2024-03-07T06:37:59;52.10;;;27.90;;
24301;SDS011;12421;49.732;20.078;2024-03-07T06:48:04;51.90;;;26.10;;
24301;SDS011;12421;49.732;20.078;2024-03-07T06:58:12;51.60;;;28.40;;
24301;SDS011;12421;49.732;20.078;2024-03-07T07:08:15;47.10;;;25.20;;
24301;SDS011;12421;49.732;20.078;2024-03-07T07:18:18;52.50;;;28.50;;
24301;SDS011;12421;49.732;20.078;2024-03-07T07:28:22;56.00;;;30.30;;
24301;SDS011;12421;49.732;20.078;2024-03-07T07:38:25;61.00;;;31.50;;
24301;SDS011;12421;49.732;20.078;2024-03-07T07:48:29;58.20;;;31.40;;
24301;SDS011;12421;49.732;20.078;2024-03-07T07:58:32;48.70;;;26.30;;
24301;SDS011;12421;49.732;20.078;2024-03-07T08:08:35;64.80;;;32.30;;
24301;SDS011;12421;49.732;20.078;2024-03-07T08:18:39;62.40;;;31.40;;
24301;SDS011;12421;49.732;20.078;2024-03-07T08:28:42;60.90;;;30.60;;
24301;SDS011;12421;49.732;20.078;2024-03-07T08:38:45;60.60;;;31.50;;
24301;SDS011;12421;49.732;20.078;2024-03-07T08:48:49;53.00;;;29.30;;
24301;SDS011;12421;49.732;20.078;2024-03-07T08:58:55;58.70;;;30.60;;
24301;SDS011;12421;49.732;20.078;2024-03-07T09:08:58;64.00;;;31.60;;
24301;SDS011;12421;49.732;20.078;2024-03-07T09:19:02;61.00;;;32.70;;
24301;SDS011;12421;49.732;20.078;2024-03-07T09:29:06;62.30;;;32.50;;
24301;SDS011;12421;49.732;20.078;2024-03-07T09:39:09;55.50;;;30.60;;
24301;SDS011;12421;49.732;20.078;2024-03-07T09:49:13;59.70;;;32.40;;
24301;SDS011;12421;49.732;20.078;2024-03-07T09:59:16;59.50;;;32.20;;
24301;SDS011;12421;49.732;20.078;2024-03-07T10:09:23;57.50;;;32.40;;
24301;SDS011;12421;49.732;20.078;2024-03-07T10:19:28;57.40;;;31.90;;
24301;SDS011;12421;49.732;20.078;2024-03-07T10:29:31;54.70;;;30.80;;
24301;SDS011;12421;49.732;20.078;2024-03-07T10:39:34;49.80;;;29.70;;
24301;SDS011;12421;49.732;20.078;2024-03-07T10:49:37;47.70;;;26.80;;
24301;SDS011;12421;49.732;20.078;2024-03-07T11:00:04;49.90;;;29.00;;
24301;SDS011;12421;49.732;20.078;2024-03-07T11:10:26;51.40;;;30.10;;
24301;SDS011;12421;49.732;20.078;2024-03-07T11:20:36;56.50;;;31.00;;
24301;SDS011;12421;49.732;20.078;2024-03-07T11:30:40;53.50;;;31.00;;
24301;SDS011;12421;49.732;20.078;2024-03-07T11:40:44;59.90;;;31.80;;
24301;SDS011;12421;49.732;20.078;2024-03-07T11:50:47;54.20;;;32.20;;
24301;SDS011;12421;49.732;20.078;2024-03-07T12:00:50;55.20;;;33.60;;
24301;SDS011;12421;49.732;20.078;2024-03-07T12:10:55;58.80;;;33.50;;
24301;SDS011;12421;49.732;20.078;2024-03-07T12:21:01;54.00;;;32.50;;
24301;SDS011;12421;49.732;20.078;2024-03-07T12:31:10;53.90;;;31.10;;
24301;SDS011;12421;49.732;20.078;2024-03-07T12:41:19;55.30;;;30.10;;
24301;SDS011;12421;49.732;20.078;2024-03-07T12:51:25;48.40;;;31.00;;
24301;SDS011;12421;49.732;20.078;2024-03-07T13:01:29;50.00;;;31.00;;
24301;SDS011;12421;49.732;20.078;2024-03-07T13:11:33;42.70;;;24.30;;
24301;SDS011;12421;49.732;20.078;2024-03-07T13:21:38;52.30;;;30.90;;
24301;SDS011;12421;49.732;20.078;2024-03-07T13:31:42;57.20;;;32.60;;
24301;SDS011;12421;49.732;20.078;2024-03-07T13:41:47;52.90;;;30.60;;
24301;SDS011;12421;49.732;20.078;2024-03-07T13:51:53;56.40;;;29.90;;
24301;SDS011;12421;49.732;20.078;2024-03-07T14:02:25;53.90;;;30.90;;
24301;SDS011;12421;49.732;20.078;2024-03-07T14:33:47;54.10;;;31.40;;
24301;SDS011;12421;49.732;20.078;2024-03-07T14:43:57;49.70;;;31.10;;
24301;SDS011;12421;49.732;20.078;2024-03-07T14:54:02;47.20;;;28.50;;
24301;SDS011;12421;49.732;20.078;2024-03-07T15:04:06;53.00;;;31.50;;
24301;SDS011;12421;49.732;20.078;2024-03-07T15:14:13;45.20;;;27.20;;
24301;SDS011;12421;49.732;20.078;2024-03-07T15:24:27;40.30;;;26.30;;
24301;SDS011;12421;49.732;20.078;2024-03-07T15:34:31;44.70;;;25.50;;
24301;SDS011;12421;49.732;20.078;2024-03-07T15:44:40;42.40;;;26.40;;
24301;SDS011;12421;49.732;20.078;2024-03-07T15:54:43;42.40;;;26.20;;
24301;SDS011;12421;49.732;20.078;2024-03-07T16:04:48;51.50;;;30.80;;
24301;SDS011;12421;49.732;20.078;2024-03-07T16:14:51;43.70;;;28.80;;
24301;SDS011;12421;49.732;20.078;2024-03-07T16:24:56;47.20;;;29.70;;
24301;SDS011;12421;49.732;20.078;2024-03-07T16:35:01;42.90;;;28.90;;
24301;SDS011;12421;49.732;20.078;2024-03-07T16:45:10;45.50;;;29.80;;
24301;SDS011;12421;49.732;20.078;2024-03-07T16:55:16;59.80;;;33.60;;
24301;SDS011;12421;49.732;20.078;2024-03-07T17:05:21;63.40;;;34.20;;
24301;SDS011;12421;49.732;20.078;2024-03-07T17:15:25;54.80;;;34.60;;
24301;SDS011;12421;49.732;20.078;2024-03-07T17:25:29;55.20;;;33.90;;
24301;SDS011;12421;49.732;20.078;2024-03-07T17:35:33;70.50;;;40.60;;
24301;SDS011;12421;49.732;20.078;2024-03-07T17:55:43;66.40;;;39.80;;
24301;SDS011;12421;49.732;20.078;2024-03-07T18:05:47;54.30;;;34.10;;
24301;SDS011;12421;49.732;20.078;2024-03-07T18:15:53;49.70;;;29.10;;
24301;SDS011;12421;49.732;20.078;2024-03-07T18:25:56;44.00;;;28.60;;
24301;SDS011;12421;49.732;20.078;2024-03-07T18:36:03;41.20;;;26.20;;
24301;SDS011;12421;49.732;20.078;2024-03-07T18:46:09;41.90;;;26.80;;
24301;SDS011;12421;49.732;20.078;2024-03-07T18:56:12;38.90;;;25.10;;
24301;SDS011;12421;49.732;20.078;2024-03-07T19:06:15;44.30;;;29.40;;
24301;SDS011;12421;49.732;20.078;2024-03-07T19:16:20;39.50;;;25.40;;
24301;SDS011;12421;49.732;20.078;2024-03-07T19:26:24;40.10;;;25.00;;
24301;SDS011;12421;49.732;20.078;2024-03-07T19:36:27;43.90;;;26.80;;
24301;SDS011;12421;49.732;20.078;2024-03-07T19:46:34;40.20;;;24.40;;
24301;SDS011;12421;49.732;20.078;2024-03-07T19:56:37;40.60;;;24.10;;
24301;SDS011;12421;49.732;20.078;2024-03-07T20:06:42;37.50;;;24.60;;
24301;SDS011;12421;49.732;20.078;2024-03-07T20:16:48;34.90;;;23.90;;
24301;SDS011;12421;49.732;20.078;2024-03-07T20:26:51;36.90;;;25.20;;
24301;SDS011;12421;49.732;20.078;2024-03-07T20:36:56;31.70;;;21.80;;
24301;SDS011;12421;49.732;20.078;2024-03-07T20:46:59;32.40;;;20.10;;
24301;SDS011;12421;49.732;20.078;2024-03-07T20:57:06;31.50;;;20.70;;
24301;SDS011;12421;49.732;20.078;2024-03-07T21:07:10;35.70;;;22.80;;
24301;SDS011;12421;49.732;20.078;2024-03-07T21:17:13;32.70;;;21.50;;
24301;SDS011;12421;49.732;20.078;2024-03-07T21:27:17;33.10;;;23.00;;
24301;SDS011;12421;49.732;20.078;2024-03-07T21:37:20;35.10;;;23.30;;
24301;SDS011;12421;49.732;20.078;2024-03-07T21:47:24;45.50;;;26.10;;
24301;SDS011;12421;49.732;20.078;2024-03-07T21:57:28;38.40;;;23.60;;
24301;SDS011;12421;49.732;20.078;2024-03-07T22:07:31;36.60;;;23.10;;
24301;SDS011;12421;49.732;20.078;2024-03-07T22:17:34;38.90;;;24.50;;
24301;SDS011;12421;49.732;20.078;2024-03-07T22:27:38;34.10;;;23.10;;
24301;SDS011;12421;49.732;20.078;2024-03-07T22:37:43;37.00;;;23.30;;
24301;SDS011;12421;49.732;20.078;2024-03-07T22:47:50;37.30;;;25.60;;
24301;SDS011;12421;49.732;20.078;2024-03-07T22:57:55;37.50;;;23.60;;
24301;SDS011;12421;49.732;20.078;2024-03-07T23:07:59;42.90;;;24.70;;
24301;SDS011;12421;49.732;20.078;2024-03-07T23:18:03;36.60;;;24.00;;
24301;SDS011;12421;49.732;20.078;2024-03-07T23:28:07;36.30;;;25.30;;
24301;SDS011;12421;49.732;20.078;2024-03-07T23:38:11;36.10;;;23.80;;
24301;SDS011;12421;49.732;20.078;2024-03-07T23:48:15;35.60;;;23.20;;
24301;SDS011;12421;49.732;20.078;2024-03-07T23:58:19;34.60;;;23.10;;
